Time;durP1;ratioP1;P1;durP2;ratioP2;P2;SDS_P1;SDS_P2;PMS_P1;PMS_P2;Temp;Humidity;BMP_temperature;BMP_pressure;BME280_temperature;BME280_humidity;BME280_pressure;Samples;Min_cycle;Max_cycle;Signal;HPM_P1;HPM_P2
2022/03/20 00:01:55;;;;;;;;;;;21.90;49.10;;;;;;5094704;28;932;-35
2022/03/20 00:04:23;;;;;;;;;;;21.90;49.10;;;;;;5095838;28;892;-35
2022/03/20 00:06:50;;;;;;;;;;;22.00;49.10;;;;;;5095474;28;1035;-35
2022/03/20 00:09:16;;;;;;;;;;;21.90;49.10;;;;;;5094743;28;940;-35
2022/03/20 00:11:43;;;;;;;;;;;21.90;49.10;;;;;;5096092;28;980;-35
2022/03/20 00:14:10;;;;;;;;;;;21.90;49.10;;;;;;5095332;28;1894;-35
2022/03/20 00:16:36;;;;;;;;;;;21.90;49.10;;;;;;5095213;28;947;-35
2022/03/20 00:19:05;;;;;;;;;;;21.90;49.10;;;;;;5095727;28;936;-35
2022/03/20 00:21:34;;;;;;;;;;;21.90;49.20;;;;;;5095985;28;1007;-35
2022/03/20 00:24:01;;;;;;;;;;;21.90;49.00;;;;;;5094579;28;993;-35
2022/03/20 00:26:28;;;;;;;;;;;21.90;49.10;;;;;;5094989;28;992;-35
2022/03/20 00:28:54;;;;;;;;;;;21.90;49.10;;;;;;5094691;28;996;-35
2022/03/20 00:31:21;;;;;;;;;;;21.80;49.20;;;;;;5095563;28;982;-35
2022/03/20 00:33:48;;;;;;;;;;;21.80;49.20;;;;;;5098144;28;1038;-35
2022/03/20 00:36:14;;;;;;;;;;;21.80;49.10;;;;;;5098776;28;1980;-35
2022/03/20 00:38:43;;;;;;;;;;;21.90;49.10;;;;;;5098850;28;933;-35
2022/03/20 00:41:09;;;;;;;;;;;21.80;49.00;;;;;;5098472;28;1006;-35
2022/03/20 00:43:38;;;;;;;;;;;21.80;49.10;;;;;;5098002;28;979;-35
2022/03/20 00:46:05;;;;;;;;;;;21.80;49.30;;;;;;5098591;28;969;-35
2022/03/20 00:48:32;;;;;;;;;;;21.80;49.20;;;;;;5098321;28;916;-35
2022/03/20 00:51:03;;;;;;;;;;;21.80;49.20;;;;;;5098965;28;1691;-35
2022/03/20 00:53:30;;;;;;;;;;;21.90;49.20;;;;;;5099397;28;1019;-35
2022/03/20 00:55:58;;;;;;;;;;;21.90;49.10;;;;;;5098450;28;1988;-35
2022/03/20 00:58:25;;;;;;;;;;;21.80;49.10;;;;;;5098455;28;1007;-35
2022/03/20 01:00:51;;;;;;;;;;;21.80;49.20;;;;;;5098754;28;980;-35
2022/03/20 01:03:18;;;;;;;;;;;21.80;49.10;;;;;;5098550;28;923;-35
2022/03/20 01:05:45;;;;;;;;;;;21.80;49.10;;;;;;5098331;28;985;-35
2022/03/20 01:08:12;;;;;;;;;;;21.80;49.20;;;;;;5098793;28;896;-35
2022/03/20 01:10:39;;;;;;;;;;;21.80;49.30;;;;;;5098301;28;1021;-35
2022/03/20 01:13:07;;;;;;;;;;;21.70;49.20;;;;;;5098321;28;957;-35
2022/03/20 01:15:33;;;;;;;;;;;21.80;49.30;;;;;;5096378;28;1914;-35
2022/03/20 01:18:00;;;;;;;;;;;21.80;49.20;;;;;;5098369;28;1023;-35
2022/03/20 01:20:27;;;;;;;;;;;21.80;49.20;;;;;;5098868;28;956;-35
2022/03/20 01:22:54;;;;;;;;;;;21.80;49.10;;;;;;5098716;28;992;-35
2022/03/20 01:25:20;;;;;;;;;;;21.80;49.20;;;;;;5098034;28;1010;-35
2022/03/20 01:27:47;;;;;;;;;;;21.80;49.20;;;;;;5098598;28;900;-35
2022/03/20 01:30:15;;;;;;;;;;;21.80;49.20;;;;;;5098044;28;998;-35
2022/03/20 01:32:42;;;;;;;;;;;21.80;49.00;;;;;;5098342;28;1026;-35
2022/03/20 01:35:09;;;;;;;;;;;21.80;49.10;;;;;;5098134;28;1901;-35
2022/03/20 01:37:36;;;;;;;;;;;21.80;49.10;;;;;;5098176;28;980;-35
2022/03/20 01:40:03;;;;;;;;;;;21.70;49.10;;;;;;5097288;28;1152;-35
2022/03/20 01:42:32;;;;;;;;;;;21.70;49.20;;;;;;5097751;28;920;-35
2022/03/20 01:44:58;;;;;;;;;;;21.80;49.20;;;;;;5097352;28;1001;-35
2022/03/20 01:47:26;;;;;;;;;;;21.80;49.20;;;;;;5097383;28;1012;-35
2022/03/20 01:49:53;;;;;;;;;;;21.70;49.00;;;;;;5097933;28;1161;-35
2022/03/20 01:52:24;;;;;;;;;;;21.80;49.20;;;;;;5098128;28;1094;-35
2022/03/20 01:54:53;;;;;;;;;;;21.70;49.10;;;;;;5098161;28;1909;-35
2022/03/20 01:57:21;;;;;;;;;;;21.70;49.10;;;;;;5098460;28;1035;-35
2022/03/20 01:59:48;;;;;;;;;;;21.70;49.10;;;;;;5098038;28;912;-35
2022/03/20 02:02:15;;;;;;;;;;;21.70;49.10;;;;;;5099775;28;920;-33
2022/03/20 02:04:43;;;;;;;;;;;21.70;49.00;;;;;;5097544;28;972;-33
2022/03/20 02:07:10;;;;;;;;;;;21.70;49.10;;;;;;5097350;28;964;-33
2022/03/20 02:09:37;;;;;;;;;;;21.70;49.10;;;;;;5097377;28;988;-33
2022/03/20 02:12:05;;;;;;;;;;;21.70;49.10;;;;;;5096918;28;1021;-34
2022/03/20 02:14:32;;;;;;;;;;;21.70;49.00;;;;;;5097095;28;941;-33
2022/03/20 02:16:59;;;;;;;;;;;21.70;49.10;;;;;;5097062;28;2003;-33
2022/03/20 02:19:25;;;;;;;;;;;21.70;49.10;;;;;;5097022;28;1004;-33
2022/03/20 02:21:54;;;;;;;;;;;21.70;49.20;;;;;;5097033;28;983;-33
2022/03/20 02:24:33;;;;;;;;;;;21.70;49.20;;;;;;5097390;28;971;-33
2022/03/20 02:27:19;;;;;;;;;;;21.70;49.20;;;;;;5097364;28;1152;-33
2022/03/20 02:29:47;;;;;;;;;;;21.70;49.10;;;;;;5097270;28;912;-33
2022/03/20 02:32:16;;;;;;;;;;;21.70;49.10;;;;;;5097375;28;951;-33
2022/03/20 02:34:45;;;;;;;;;;;21.70;49.10;;;;;;5097648;28;1988;-33
2022/03/20 02:37:13;;;;;;;;;;;21.70;49.20;;;;;;5097059;28;1101;-33
2022/03/20 02:39:40;;;;;;;;;;;21.70;49.10;;;;;;5097245;28;1006;-33
2022/03/20 02:42:08;;;;;;;;;;;21.70;49.10;;;;;;5097204;28;1028;-37
2022/03/20 02:45:03;;;;;;;;;;;21.70;49.10;;;;;;5096706;28;1007;-33
2022/03/20 02:47:30;;;;;;;;;;;21.70;49.10;;;;;;5072755;28;1805;-33
2022/03/20 02:49:58;;;;;;;;;;;21.70;49.20;;;;;;5096702;28;1182;-33
2022/03/20 02:52:28;;;;;;;;;;;21.60;49.10;;;;;;5096533;28;948;-33
2022/03/20 02:54:55;;;;;;;;;;;21.60;49.20;;;;;;5096964;28;1913;-33
2022/03/20 02:57:22;;;;;;;;;;;21.70;49.20;;;;;;5095990;28;967;-33
2022/03/20 02:59:48;;;;;;;;;;;21.70;49.10;;;;;;5096797;28;999;-33
2022/03/20 03:02:15;;;;;;;;;;;21.60;49.10;;;;;;5096917;28;1042;-33
2022/03/20 03:04:42;;;;;;;;;;;21.70;49.10;;;;;;5097040;28;940;-33
2022/03/20 03:07:14;;;;;;;;;;;21.60;49.10;;;;;;5098281;28;1006;-33
2022/03/20 03:12:27;;;;;;;;;;;21.60;49.10;;;;;;5096368;28;601;-33
2022/03/20 03:17:38;;;;;;;;;;;21.60;49.10;;;;;;5095770;28;675;-33
2022/03/20 03:20:05;;;;;;;;;;;21.60;49.20;;;;;;5095584;28;939;-33
2022/03/20 03:22:32;;;;;;;;;;;21.60;49.20;;;;;;5096681;28;988;-33
2022/03/20 03:25:00;;;;;;;;;;;21.60;49.20;;;;;;5096508;28;973;-33
2022/03/20 03:27:27;;;;;;;;;;;21.60;49.20;;;;;;5096169;28;1806;-34
2022/03/20 03:29:53;;;;;;;;;;;21.60;49.20;;;;;;5096332;28;1316;-33
2022/03/20 03:32:20;;;;;;;;;;;21.60;49.20;;;;;;5096480;28;928;-33
2022/03/20 03:37:32;;;;;;;;;;;21.60;49.20;;;;;;5095590;28;699;-33
2022/03/20 03:40:01;;;;;;;;;;;21.60;49.20;;;;;;5096321;28;970;-33
2022/03/20 03:42:28;;;;;;;;;;;21.60;49.20;;;;;;5096206;28;991;-35
2022/03/20 03:44:54;;;;;;;;;;;21.60;49.20;;;;;;5095730;28;973;-33
2022/03/20 03:47:21;;;;;;;;;;;21.60;49.00;;;;;;5095771;28;1019;-33
2022/03/20 03:49:48;;;;;;;;;;;21.60;49.10;;;;;;5095723;28;1214;-33
2022/03/20 03:52:14;;;;;;;;;;;21.60;49.10;;;;;;5096139;28;920;-33
2022/03/20 03:54:41;;;;;;;;;;;21.60;49.10;;;;;;5095975;28;917;-34
2022/03/20 03:57:10;;;;;;;;;;;21.60;49.30;;;;;;5096541;28;2043;-33
2022/03/20 03:59:36;;;;;;;;;;;21.50;49.10;;;;;;5096430;28;947;-33
2022/03/20 04:02:03;;;;;;;;;;;21.60;49.10;;;;;;5096984;28;1019;-33
2022/03/20 04:04:30;;;;;;;;;;;21.60;49.10;;;;;;5096838;28;1035;-33
2022/03/20 04:06:57;;;;;;;;;;;21.50;49.10;;;;;;5096901;28;1168;-33
2022/03/20 04:09:24;;;;;;;;;;;21.50;49.20;;;;;;5100326;28;1012;-33
2022/03/20 04:11:51;;;;;;;;;;;21.50;49.20;;;;;;5101004;28;1011;-33
2022/03/20 04:14:20;;;;;;;;;;;21.50;49.20;;;;;;5099893;28;1098;-33
2022/03/20 04:16:47;;;;;;;;;;;21.50;49.20;;;;;;5099462;28;1905;-33
2022/03/20 04:19:13;;;;;;;;;;;21.50;49.20;;;;;;5098965;28;992;-33
2022/03/20 04:21:40;;;;;;;;;;;21.50;49.30;;;;;;5099485;28;1038;-33
2022/03/20 04:24:07;;;;;;;;;;;21.50;49.30;;;;;;5099302;28;988;-33
2022/03/20 04:26:34;;;;;;;;;;;21.50;49.20;;;;;;5098882;28;1001;-33
2022/03/20 04:29:01;;;;;;;;;;;21.50;49.30;;;;;;5100030;28;972;-33
2022/03/20 04:31:29;;;;;;;;;;;21.50;49.30;;;;;;5100205;28;1829;-33
2022/03/20 04:33:56;;;;;;;;;;;21.50;49.20;;;;;;5099829;28;940;-33
2022/03/20 04:36:23;;;;;;;;;;;21.50;49.20;;;;;;5100547;28;1984;-33
2022/03/20 04:38:51;;;;;;;;;;;21.50;49.10;;;;;;5099738;28;889;-33
2022/03/20 04:41:18;;;;;;;;;;;21.50;49.20;;;;;;5099421;28;917;-33
2022/03/20 04:43:45;;;;;;;;;;;21.50;49.20;;;;;;5099465;28;1036;-33
2022/03/20 04:46:12;;;;;;;;;;;21.50;49.30;;;;;;5099118;28;999;-33
2022/03/20 04:59:33;;;;;;;;;;;21.50;49.20;;;;;;5098916;28;652;-33
2022/03/20 05:01:59;;;;;;;;;;;21.50;49.20;;;;;;5099573;28;1009;-34
2022/03/20 05:04:27;;;;;;;;;;;21.40;49.20;;;;;;5099073;28;1017;-33
2022/03/20 05:06:54;;;;;;;;;;;21.50;49.20;;;;;;5099481;28;941;-33
2022/03/20 05:14:49;;;;;;;;;;;21.40;49.20;;;;;;5098843;28;908;-33
2022/03/20 05:17:16;;;;;;;;;;;21.40;49.20;;;;;;5097216;28;1990;-33
2022/03/20 05:19:44;;;;;;;;;;;21.40;50.30;;;;;;5096635;28;1056;-33
2022/03/20 05:22:11;;;;;;;;;;;21.40;49.10;;;;;;5098196;28;1031;-33
2022/03/20 05:24:38;;;;;;;;;;;21.40;49.30;;;;;;5098680;28;936;-33
2022/03/20 05:27:06;;;;;;;;;;;21.40;49.20;;;;;;5098271;28;1777;-33
2022/03/20 05:29:33;;;;;;;;;;;21.40;49.20;;;;;;5097721;28;853;-36
2022/03/20 05:32:01;;;;;;;;;;;21.40;49.20;;;;;;5098751;28;940;-36
2022/03/20 05:34:28;;;;;;;;;;;21.40;49.20;;;;;;5098366;28;1231;-36
2022/03/20 05:36:57;;;;;;;;;;;21.40;49.20;;;;;;5098864;28;1914;-36
2022/03/20 05:39:24;;;;;;;;;;;21.40;49.20;;;;;;5098858;28;1027;-36
2022/03/20 05:41:51;;;;;;;;;;;21.40;49.20;;;;;;5099165;28;1003;-36
2022/03/20 05:44:21;;;;;;;;;;;21.40;49.20;;;;;;5098845;28;932;-36
2022/03/20 05:46:49;;;;;;;;;;;21.30;49.20;;;;;;5099075;28;947;-36
2022/03/20 05:49:16;;;;;;;;;;;21.40;49.20;;;;;;5098400;28;1181;-36
2022/03/20 05:51:43;;;;;;;;;;;21.40;49.10;;;;;;5098604;28;963;-36
2022/03/20 05:54:12;;;;;;;;;;;21.40;49.10;;;;;;5098452;28;679;-36
2022/03/20 05:59:23;;;;;;;;;;;21.40;49.10;;;;;;5098298;28;674;-36
2022/03/20 06:01:50;;;;;;;;;;;21.40;49.10;;;;;;5097510;28;937;-36
2022/03/20 06:04:17;;;;;;;;;;;21.40;49.00;;;;;;5097857;28;980;-36
2022/03/20 06:06:44;;;;;;;;;;;21.40;49.00;;;;;;5098428;28;1004;-35
2022/03/20 06:09:12;;;;;;;;;;;21.40;49.10;;;;;;5097714;28;965;-36
2022/03/20 06:11:39;;;;;;;;;;;21.40;49.00;;;;;;5098012;28;1048;-36
2022/03/20 06:14:06;;;;;;;;;;;21.40;48.90;;;;;;5097913;28;949;-36
2022/03/20 06:16:34;;;;;;;;;;;21.40;49.00;;;;;;5096334;28;1975;-36
2022/03/20 06:19:01;;;;;;;;;;;21.40;49.00;;;;;;5096683;28;1031;-36
2022/03/20 06:21:28;;;;;;;;;;;21.40;49.10;;;;;;5097088;28;960;-36
2022/03/20 06:23:55;;;;;;;;;;;21.40;49.00;;;;;;5097029;28;945;-37
2022/03/20 06:26:24;;;;;;;;;;;21.40;49.00;;;;;;5098007;28;1015;-37
2022/03/20 06:28:50;;;;;;;;;;;21.40;49.00;;;;;;5096588;28;1051;-36
2022/03/20 06:31:18;;;;;;;;;;;21.40;49.00;;;;;;5095991;28;1024;-36
2022/03/20 06:33:45;;;;;;;;;;;21.40;49.10;;;;;;5095854;28;936;-36
2022/03/20 06:36:12;;;;;;;;;;;21.40;49.10;;;;;;5096414;28;1905;-36
2022/03/20 06:38:38;;;;;;;;;;;21.40;49.10;;;;;;5095888;28;1000;-36
2022/03/20 06:41:06;;;;;;;;;;;21.40;49.10;;;;;;5096152;28;967;-38
2022/03/20 06:43:36;;;;;;;;;;;21.30;49.00;;;;;;5096191;28;925;-37
2022/03/20 06:46:04;;;;;;;;;;;21.40;49.10;;;;;;5096568;28;987;-36
2022/03/20 06:48:31;;;;;;;;;;;21.40;49.00;;;;;;5096537;28;1003;-36
2022/03/20 06:50:58;;;;;;;;;;;21.30;49.00;;;;;;5096442;28;1140;-36
2022/03/20 06:53:25;;;;;;;;;;;21.40;49.10;;;;;;5096893;28;932;-36
2022/03/20 06:55:52;;;;;;;;;;;21.40;49.10;;;;;;5097228;28;1021;-36
2022/03/20 06:58:21;;;;;;;;;;;21.40;49.10;;;;;;5096575;28;1901;-36
2022/03/20 07:00:49;;;;;;;;;;;21.40;49.00;;;;;;5096555;28;1012;-36
2022/03/20 07:03:16;;;;;;;;;;;21.40;49.10;;;;;;5096830;28;961;-36
2022/03/20 07:05:43;;;;;;;;;;;21.40;49.10;;;;;;5095948;28;1058;-37
2022/03/20 07:08:10;;;;;;;;;;;21.40;49.10;;;;;;5093329;28;1000;-36
2022/03/20 07:10:37;;;;;;;;;;;21.40;49.10;;;;;;5097552;28;943;-36
2022/03/20 07:15:51;;;;;;;;;;;21.40;49.10;;;;;;5094652;28;895;-37
2022/03/20 07:18:20;;;;;;;;;;;21.40;49.10;;;;;;5095410;28;1905;-37
2022/03/20 07:20:47;;;;;;;;;;;21.40;49.10;;;;;;5094792;28;912;-36
2022/03/20 07:23:14;;;;;;;;;;;21.30;49.00;;;;;;5095579;28;998;-38
2022/03/20 07:31:12;;;;;;;;;;;21.40;49.00;;;;;;5098090;28;977;-36
2022/03/20 07:33:39;;;;;;;;;;;21.30;49.00;;;;;;5098527;28;2900;-36
2022/03/20 07:36:06;;;;;;;;;;;21.40;49.20;;;;;;5095410;28;936;-36
2022/03/20 07:38:35;;;;;;;;;;;21.40;49.10;;;;;;5096027;28;1901;-36
2022/03/20 07:41:01;;;;;;;;;;;21.40;49.10;;;;;;5095794;28;985;-36
2022/03/20 07:43:28;;;;;;;;;;;21.40;49.20;;;;;;5099283;28;948;-36
2022/03/20 07:45:56;;;;;;;;;;;21.40;49.10;;;;;;5099868;28;929;-36
2022/03/20 07:48:24;;;;;;;;;;;21.40;49.20;;;;;;5098897;28;1853;-37
2022/03/20 07:50:51;;;;;;;;;;;21.30;49.10;;;;;;5098291;28;1098;-36
2022/03/20 07:53:18;;;;;;;;;;;21.40;49.10;;;;;;5099432;28;976;-36
2022/03/20 07:55:45;;;;;;;;;;;21.40;49.10;;;;;;5099731;28;991;-36
2022/03/20 07:58:12;;;;;;;;;;;21.40;49.10;;;;;;5099843;28;1987;-37
2022/03/20 08:00:39;;;;;;;;;;;21.40;49.10;;;;;;5099420;28;1012;-36
2022/03/20 08:03:06;;;;;;;;;;;21.40;49.10;;;;;;5098759;28;981;-36
2022/03/20 08:05:34;;;;;;;;;;;21.40;49.10;;;;;;5098391;28;1000;-35
2022/03/20 08:08:02;;;;;;;;;;;21.30;49.00;;;;;;5098811;28;949;-38
2022/03/20 08:10:29;;;;;;;;;;;21.40;49.10;;;;;;5098790;28;944;-38
2022/03/20 08:12:56;;;;;;;;;;;21.40;49.10;;;;;;5097575;28;944;-38
2022/03/20 08:15:24;;;;;;;;;;;21.40;49.10;;;;;;5099689;28;977;-38
2022/03/20 08:17:51;;;;;;;;;;;21.40;49.10;;;;;;5099146;28;1910;-36
2022/03/20 08:20:19;;;;;;;;;;;21.40;49.10;;;;;;5099625;28;991;-36
2022/03/20 08:22:48;;;;;;;;;;;21.40;49.10;;;;;;5100397;28;948;-41
2022/03/20 08:25:15;;;;;;;;;;;21.40;49.20;;;;;;5099820;28;1014;-40
2022/03/20 08:27:42;;;;;;;;;;;21.40;49.20;;;;;;5101117;28;1028;-42
2022/03/20 08:30:11;;;;;;;;;;;21.40;49.10;;;;;;5100954;28;1011;-40
2022/03/20 08:32:38;;;;;;;;;;;21.40;49.00;;;;;;5099989;28;936;-40
2022/03/20 08:35:05;;;;;;;;;;;21.40;49.10;;;;;;5099030;28;941;-40
2022/03/20 08:37:34;;;;;;;;;;;21.40;49.00;;;;;;5097468;28;1910;-40
2022/03/20 08:40:03;;;;;;;;;;;21.40;49.10;;;;;;5097840;28;964;-40
2022/03/20 08:42:30;;;;;;;;;;;21.40;49.10;;;;;;5099036;28;935;-40
2022/03/20 08:44:56;;;;;;;;;;;21.40;49.00;;;;;;5098978;28;883;-39
2022/03/20 08:47:25;;;;;;;;;;;21.40;49.00;;;;;;5097415;28;1118;-38
2022/03/20 08:49:52;;;;;;;;;;;21.40;48.90;;;;;;5098725;28;1099;-37
2022/03/20 08:52:19;;;;;;;;;;;21.40;48.90;;;;;;5088391;28;949;-38
2022/03/20 08:54:46;;;;;;;;;;;21.50;48.90;;;;;;5099141;28;952;-38
2022/03/20 08:57:15;;;;;;;;;;;21.50;48.90;;;;;;5099006;28;1991;-37
2022/03/20 08:59:42;;;;;;;;;;;21.40;48.70;;;;;;5098631;28;1003;-39
2022/03/20 09:02:08;;;;;;;;;;;21.40;48.90;;;;;;5099004;28;1197;-40
2022/03/20 09:04:35;;;;;;;;;;;21.50;48.70;;;;;;5097893;28;943;-39
2022/03/20 09:07:02;;;;;;;;;;;21.50;49.90;;;;;;5099298;28;993;-38
2022/03/20 09:09:28;;;;;;;;;;;21.50;48.70;;;;;;5100032;28;953;-37
2022/03/20 09:11:55;;;;;;;;;;;21.50;48.90;;;;;;5100279;28;960;-38
2022/03/20 09:14:23;;;;;;;;;;;21.50;48.60;;;;;;5099994;28;1047;-37
2022/03/20 09:19:36;;;;;;;;;;;21.60;48.30;;;;;;5096214;28;694;-37
2022/03/20 09:22:03;;;;;;;;;;;21.70;48.30;;;;;;5096914;28;1132;-36
2022/03/20 09:24:30;;;;;;;;;;;21.70;48.00;;;;;;5097397;28;937;-36
2022/03/20 09:26:57;;;;;;;;;;;21.70;48.20;;;;;;5094768;28;983;-36
2022/03/20 09:29:26;;;;;;;;;;;21.70;47.90;;;;;;5095490;28;961;-36
2022/03/20 09:31:52;;;;;;;;;;;21.70;48.00;;;;;;5096493;28;977;-36
2022/03/20 09:34:20;;;;;;;;;;;21.70;47.80;;;;;;5096451;28;863;-36
2022/03/20 09:36:46;;;;;;;;;;;21.80;48.00;;;;;;5095176;28;864;-36
2022/03/20 09:39:13;;;;;;;;;;;21.80;47.90;;;;;;5096290;28;1965;-36
2022/03/20 09:41:41;;;;;;;;;;;21.80;47.90;;;;;;5095430;28;1014;-36
2022/03/20 09:44:08;;;;;;;;;;;21.80;47.90;;;;;;5095470;28;1018;-36
2022/03/20 09:46:36;;;;;;;;;;;21.80;47.90;;;;;;5096787;28;1012;-36
2022/03/20 09:49:05;;;;;;;;;;;21.80;47.90;;;;;;5095454;28;1066;-36
2022/03/20 09:51:33;;;;;;;;;;;21.80;47.90;;;;;;5095551;28;1004;-36
2022/03/20 09:53:59;;;;;;;;;;;21.80;47.90;;;;;;5096474;28;892;-36
2022/03/20 09:56:27;;;;;;;;;;;21.80;47.90;;;;;;5097802;28;1001;-36
2022/03/20 09:58:53;;;;;;;;;;;21.80;47.90;;;;;;5095036;28;1898;-37
2022/03/20 10:01:20;;;;;;;;;;;21.80;47.90;;;;;;5093669;28;986;-36
2022/03/20 10:03:48;;;;;;;;;;;21.80;47.90;;;;;;5094797;28;940;-37
2022/03/20 10:06:16;;;;;;;;;;;21.80;47.90;;;;;;5094686;28;990;-36
2022/03/20 10:09:01;;;;;;;;;;;21.80;47.90;;;;;;5094756;28;948;-36
2022/03/20 10:11:27;;;;;;;;;;;21.80;47.90;;;;;;5095724;28;1220;-36
2022/03/20 10:14:11;;;;;;;;;;;21.90;47.90;;;;;;5095796;28;955;-36
2022/03/20 10:16:39;;;;;;;;;;;21.90;47.90;;;;;;5096173;28;1034;-36
2022/03/20 10:19:23;;;;;;;;;;;21.90;47.90;;;;;;5095780;28;2033;-36
2022/03/20 10:21:53;;;;;;;;;;;21.90;49.10;;;;;;5088065;28;1090;-38
2022/03/20 10:24:21;;;;;;;;;;;21.80;47.90;;;;;;5096075;28;1010;-37
2022/03/20 10:30:01;;;;;;;;;;;21.80;47.90;;;;;;5095743;28;877;-40
2022/03/20 10:32:28;;;;;;;;;;;21.90;48.00;;;;;;5097142;28;984;-39
2022/03/20 10:34:56;;;;;;;;;;;21.90;47.90;;;;;;5092493;28;948;-40
2022/03/20 10:37:45;;;;;;;;;;;21.90;48.00;;;;;;5095351;28;1929;-39
2022/03/20 10:40:14;;;;;;;;;;;21.90;48.00;;;;;;5094749;28;928;-40
2022/03/20 10:42:40;;;;;;;;;;;21.90;47.90;;;;;;5097437;28;915;-39
2022/03/20 10:45:08;;;;;;;;;;;21.90;47.90;;;;;;5095985;28;2042;-39
2022/03/20 10:47:35;;;;;;;;;;;21.90;48.00;;;;;;5095568;28;940;-36
2022/03/20 10:50:03;;;;;;;;;;;22.00;47.90;;;;;;5095427;28;1098;-36
2022/03/20 10:52:30;;;;;;;;;;;21.90;47.90;;;;;;5096819;28;1023;-35
2022/03/20 10:54:59;;;;;;;;;;;21.90;47.90;;;;;;5097180;28;977;-36
2022/03/20 10:57:32;;;;;;;;;;;21.90;47.90;;;;;;5097910;28;1906;-36
2022/03/20 11:00:00;;;;;;;;;;;21.90;47.90;;;;;;5097548;28;984;-36
2022/03/20 11:02:27;;;;;;;;;;;21.90;49.10;;;;;;5096629;28;1028;-36
2022/03/20 11:04:54;;;;;;;;;;;21.90;47.90;;;;;;5096574;28;994;-36
2022/03/20 11:07:21;;;;;;;;;;;21.90;47.80;;;;;;5096957;28;984;-36
2022/03/20 11:09:48;;;;;;;;;;;21.90;47.90;;;;;;5093829;28;1055;-37
2022/03/20 11:12:19;;;;;;;;;;;21.90;47.90;;;;;;5093760;28;1009;-36
2022/03/20 11:14:46;;;;;;;;;;;21.90;47.90;;;;;;5094666;28;976;-36
2022/03/20 11:17:17;;;;;;;;;;;21.90;47.90;;;;;;5093406;28;1236;-36
2022/03/20 11:19:48;;;;;;;;;;;21.90;47.90;;;;;;5093957;28;1981;-36
2022/03/20 11:22:15;;;;;;;;;;;21.90;48.00;;;;;;5094394;28;980;-36
2022/03/20 11:24:42;;;;;;;;;;;21.90;47.90;;;;;;5094746;28;1000;-36
2022/03/20 11:27:11;;;;;;;;;;;21.90;47.90;;;;;;5094966;28;876;-36
2022/03/20 11:29:42;;;;;;;;;;;22.00;48.00;;;;;;5093766;28;1031;-36
2022/03/20 11:32:09;;;;;;;;;;;21.90;49.10;;;;;;5094775;28;948;-36
2022/03/20 11:34:36;;;;;;;;;;;21.90;47.90;;;;;;5094605;28;1007;-36
2022/03/20 11:37:09;;;;;;;;;;;21.90;47.90;;;;;;5095012;28;1016;-36
2022/03/20 11:39:37;;;;;;;;;;;21.90;47.90;;;;;;5095947;28;1905;-36
2022/03/20 11:42:23;;;;;;;;;;;21.90;47.90;;;;;;5096167;28;1055;-36
2022/03/20 11:45:10;;;;;;;;;;;21.90;48.00;;;;;;5095941;28;935;-37
2022/03/20 11:47:37;;;;;;;;;;;21.90;47.90;;;;;;5095942;28;999;-36
2022/03/20 11:50:07;;;;;;;;;;;21.90;47.90;;;;;;5097634;28;1252;-36
2022/03/20 11:52:44;;;;;;;;;;;21.90;48.00;;;;;;5097182;28;983;-37
2022/03/20 11:55:24;;;;;;;;;;;21.90;48.00;;;;;;5096640;28;1062;-36
2022/03/20 11:57:51;;;;;;;;;;;21.80;49.20;;;;;;5092952;28;1906;-36
2022/03/20 12:00:23;;;;;;;;;;;21.80;47.90;;;;;;5094960;28;908;-35
2022/03/20 12:02:51;;;;;;;;;;;21.80;48.10;;;;;;5093123;28;885;-36
2022/03/20 12:05:22;;;;;;;;;;;21.80;48.00;;;;;;5092398;28;932;-36
2022/03/20 12:07:55;;;;;;;;;;;21.80;48.50;;;;;;5094264;28;948;-36
2022/03/20 12:10:23;;;;;;;;;;;21.80;48.50;;;;;;5094876;28;1008;-40
2022/03/20 12:13:05;;;;;;;;;;;21.80;48.10;;;;;;5094211;28;939;-36
2022/03/20 12:15:41;;;;;;;;;;;21.80;48.30;;;;;;5094717;28;948;-36
2022/03/20 12:18:10;;;;;;;;;;;21.80;48.40;;;;;;5093921;28;1909;-36
2022/03/20 12:20:59;;;;;;;;;;;21.80;48.50;;;;;;5095590;28;1000;-36
2022/03/20 12:23:40;;;;;;;;;;;21.80;48.30;;;;;;5096655;28;968;-36
2022/03/20 12:26:30;;;;;;;;;;;21.80;48.40;;;;;;5095305;28;1055;-38
2022/03/20 12:29:12;;;;;;;;;;;21.80;48.20;;;;;;5097637;28;980;-38
2022/03/20 12:31:54;;;;;;;;;;;21.80;48.50;;;;;;5087683;28;1776;-38
2022/03/20 12:34:22;;;;;;;;;;;21.80;48.70;;;;;;5097382;28;924;-38
2022/03/20 12:36:49;;;;;;;;;;;21.80;48.60;;;;;;5097350;28;1750;-38
2022/03/20 12:39:30;;;;;;;;;;;21.80;48.50;;;;;;5099645;28;1897;-39
2022/03/20 12:41:57;;;;;;;;;;;21.80;48.60;;;;;;5098342;28;1608;-40
2022/03/20 12:44:25;;;;;;;;;;;21.80;48.60;;;;;;5096591;28;961;-38
2022/03/20 12:46:51;;;;;;;;;;;21.80;48.60;;;;;;5096860;28;880;-36
2022/03/20 12:49:18;;;;;;;;;;;21.80;48.60;;;;;;5096040;28;1115;-36
2022/03/20 12:51:47;;;;;;;;;;;21.80;48.80;;;;;;5097050;28;1854;-38
2022/03/20 12:54:15;;;;;;;;;;;21.80;48.80;;;;;;5097953;28;879;-39
2022/03/20 12:56:52;;;;;;;;;;;21.80;48.80;;;;;;5097199;28;1009;-40
2022/03/20 12:59:19;;;;;;;;;;;21.80;48.80;;;;;;5097042;28;1977;-40
2022/03/20 13:01:46;;;;;;;;;;;21.80;48.90;;;;;;5098269;28;936;-40
2022/03/20 13:04:18;;;;;;;;;;;21.80;48.90;;;;;;5098257;28;1000;-39
2022/03/20 13:06:44;;;;;;;;;;;21.70;49.00;;;;;;5097956;28;920;-40
2022/03/20 13:09:13;;;;;;;;;;;21.80;48.90;;;;;;5098096;28;980;-41
2022/03/20 13:11:51;;;;;;;;;;;21.70;48.80;;;;;;5097356;28;947;-39
2022/03/20 13:14:18;;;;;;;;;;;21.80;48.90;;;;;;5098250;28;1797;-40
2022/03/20 13:16:49;;;;;;;;;;;21.70;48.70;;;;;;5099892;28;1010;-39
2022/03/20 13:19:25;;;;;;;;;;;21.70;48.80;;;;;;5097082;28;1906;-40
2022/03/20 13:21:52;;;;;;;;;;;21.70;48.90;;;;;;5097790;28;979;-39
2022/03/20 13:24:28;;;;;;;;;;;21.70;48.70;;;;;;5097722;28;936;-40
2022/03/20 13:26:58;;;;;;;;;;;21.70;48.80;;;;;;5098139;28;1009;-40
2022/03/20 13:29:25;;;;;;;;;;;21.70;48.80;;;;;;5096429;28;981;-40
2022/03/20 13:32:03;;;;;;;;;;;21.70;48.90;;;;;;5096315;28;1014;-41
2022/03/20 13:34:30;;;;;;;;;;;21.70;48.90;;;;;;5096133;28;1013;-41
2022/03/20 13:37:04;;;;;;;;;;;21.70;48.80;;;;;;5097260;28;1027;-44
2022/03/20 13:39:32;;;;;;;;;;;21.70;48.90;;;;;;5096833;28;1902;-40
2022/03/20 13:41:59;;;;;;;;;;;21.70;48.90;;;;;;5097282;28;962;-40
2022/03/20 13:44:37;;;;;;;;;;;21.70;48.90;;;;;;5098389;28;1018;-39
2022/03/20 13:47:05;;;;;;;;;;;21.60;48.90;;;;;;5096345;28;1015;-40
2022/03/20 13:49:32;;;;;;;;;;;21.70;48.90;;;;;;5097209;28;1209;-39
2022/03/20 13:51:59;;;;;;;;;;;21.70;48.90;;;;;;5099291;28;998;-39
2022/03/20 13:54:25;;;;;;;;;;;21.70;48.90;;;;;;5096776;28;944;-39
2022/03/20 13:57:06;;;;;;;;;;;21.70;48.90;;;;;;5097001;28;1012;-40
2022/03/20 13:59:47;;;;;;;;;;;21.70;48.80;;;;;;5097793;28;1983;-39
2022/03/20 14:02:13;;;;;;;;;;;21.70;48.90;;;;;;5097884;28;869;-41
2022/03/20 14:04:40;;;;;;;;;;;21.70;48.70;;;;;;5097248;28;992;-40
2022/03/20 14:07:17;;;;;;;;;;;21.80;48.70;;;;;;5096725;28;1016;-41
2022/03/20 14:09:43;;;;;;;;;;;21.80;48.60;;;;;;5095591;28;936;-39
2022/03/20 14:12:27;;;;;;;;;;;21.80;48.60;;;;;;5096403;28;1187;-41
2022/03/20 14:14:54;;;;;;;;;;;21.80;48.60;;;;;;5095923;28;1006;-41
2022/03/20 14:17:38;;;;;;;;;;;21.80;48.60;;;;;;5096235;28;1006;-40
2022/03/20 14:20:06;;;;;;;;;;;21.90;48.50;;;;;;5096103;28;1898;-39
2022/03/20 14:22:43;;;;;;;;;;;21.90;48.30;;;;;;5094930;28;1008;-42
2022/03/20 14:25:10;;;;;;;;;;;21.80;48.20;;;;;;5096292;28;961;-40
2022/03/20 14:27:39;;;;;;;;;;;21.80;48.30;;;;;;5097107;28;1296;-40
2022/03/20 14:41:25;;;;;;;;;;;21.90;48.30;;;;;;5096338;28;1026;-40
2022/03/20 14:44:04;;;;;;;;;;;21.90;48.40;;;;;;5097416;28;920;-41
2022/03/20 14:46:31;;;;;;;;;;;21.90;48.50;;;;;;5095561;28;1038;-39
2022/03/20 14:48:57;;;;;;;;;;;21.90;48.50;;;;;;5094064;28;1022;-41
2022/03/20 14:51:24;;;;;;;;;;;21.80;48.40;;;;;;5093680;28;1097;-42
2022/03/20 14:53:51;;;;;;;;;;;21.90;48.50;;;;;;5094627;28;912;-41
2022/03/20 14:56:18;;;;;;;;;;;21.80;48.50;;;;;;5095672;28;980;-39
2022/03/20 14:58:45;;;;;;;;;;;21.80;48.60;;;;;;5095017;28;1902;-41
2022/03/20 15:01:16;;;;;;;;;;;21.90;48.60;;;;;;5094851;28;1033;-40
2022/03/20 15:03:44;;;;;;;;;;;21.90;48.50;;;;;;5095781;28;1016;-40
2022/03/20 15:06:11;;;;;;;;;;;21.90;48.60;;;;;;5095852;28;953;-40
2022/03/20 15:11:28;;;;;;;;;;;21.90;48.40;;;;;;5094631;28;908;-41
2022/03/20 15:13:55;;;;;;;;;;;21.90;48.20;;;;;;5094866;28;1004;-41
2022/03/20 15:16:24;;;;;;;;;;;21.90;48.00;;;;;;5095703;28;1000;-41
2022/03/20 15:18:52;;;;;;;;;;;21.90;48.00;;;;;;5096140;28;1902;-41
2022/03/20 15:21:19;;;;;;;;;;;21.90;48.00;;;;;;5095458;28;917;-41
2022/03/20 15:23:46;;;;;;;;;;;21.90;48.00;;;;;;5096021;28;1047;-41
2022/03/20 15:26:13;;;;;;;;;;;22.00;48.00;;;;;;5095190;28;1007;-42
2022/03/20 15:28:40;;;;;;;;;;;22.00;48.00;;;;;;5094549;28;976;-42
2022/03/20 15:31:07;;;;;;;;;;;22.00;47.90;;;;;;5092678;28;1014;-41
2022/03/20 15:33:39;;;;;;;;;;;22.10;47.80;;;;;;5093058;28;992;-41
2022/03/20 15:36:06;;;;;;;;;;;22.10;47.90;;;;;;5092841;28;1014;-41
2022/03/20 15:38:33;;;;;;;;;;;22.10;47.80;;;;;;5093659;28;984;-41
2022/03/20 15:41:00;;;;;;;;;;;22.10;47.90;;;;;;5093059;28;1985;-40